• Join FlightAware (Why Join?)
  • Login
  • US Flag 
11:45AM EST


 

Airport Tracker/Info


-or-


 

Live Flight TrackerFlight Track Log ✈ N373LD ✈ 18-Sep-2013 ✈ KMDW - KMLS

Flight Track Log - Related Links

Times and Time Zones

All times are in EDT time to prevent confusion due to time zone crossing. See the N373LD flight status page for this flight to view local times or setup timezone preferences in your user account.

Time Position Orientation Groundspeed Altitude Reporting Facility
EDT Latitude Longitude Course Direction KTS MPH feet Rate Location/Type
10:27AM 41.7667 -87.7833 270° West 117 135 1,300  Level Chicago TRACON
10:28AM 41.7667 -87.8167 270° West 126 145 2,500 840 Climbing Chicago TRACON
10:29AM 41.7500 -87.8833 251° West 169 194 3,000 180 Climbing Chicago TRACON
10:31AM 41.7667 -87.9500 289° West 185 213 3,000 300 Level Chicago TRACON
10:32AM 41.7667 -88.0167 270° West 145 167 3,700 480 Climbing Chicago TRACON
10:33AM 41.7500 -88.0667 246° West 180 207 4,000 720 Climbing Chicago TRACON
10:34AM 41.7667 -88.1333 289° West 164 189 5,200 900 Climbing Chicago TRACON
10:34AM 41.7833 -88.1833 294° West 170 196 5,800 360 Climbing Chicago TRACON
10:36AM 41.7833 -88.2500 270° West 196 226 6,000  Climbing Chicago TRACON
10:37AM 41.7850 -88.3394 271° West 188 216 5,900 420 Descending Chicago Center
10:38AM 41.7842 -88.4169 269° West 178 205 7,100 1,200 Climbing Chicago Center
10:39AM 41.7836 -88.4731 269° West 156 180 8,400 1,200 Climbing Chicago Center
10:40AM 41.7831 -88.5289 269° West 153 176 9,700 1,200 Climbing Chicago Center
10:41AM 41.7814 -88.5864 268° West 155 178 10,900 1,140 Climbing Chicago Center
10:42AM 41.7800 -88.6442 268° West 157 181 12,100 1,200 Climbing Chicago Center
10:43AM 41.7786 -88.7142 268° West 158 182 13,400 840 Climbing Chicago Center
10:44AM 41.7853 -88.7789 278° West 182 209 13,900 660 Climbing Chicago Center
10:45AM 41.8100 -88.8419 298° West 195 224 14,800 960 Climbing Chicago Center
10:46AM 41.8344 -88.8981 300° West 177 204 15,900 960 Climbing Chicago Center
10:47AM 41.8581 -88.9544 299° West 175 201 16,800 900 Climbing Chicago Center
10:48AM 41.8867 -89.0258 298° West 180 207 17,800 900 Climbing Chicago Center
10:49AM 41.9111 -89.0842 299° West 180 207 18,700 840 Climbing Chicago Center
10:50AM 41.9369 -89.1447 300° West 186 214 19,600 840 Climbing Chicago Center
10:51AM 41.9619 -89.2064 299° West 189 217 20,500 840 Climbing Chicago Center
10:52AM 41.9875 -89.2717 298° West 195 224 21,400 960 Climbing Chicago Center
10:54AM 42.0172 -89.3464 298° West 191 220 22,600 960 Climbing Chicago Center
10:55AM 42.0428 -89.4111 298° West 196 226 23,400 840 Climbing Chicago Center
10:56AM 42.0681 -89.4767 297° West 198 228 24,400 900 Climbing Chicago Center
10:57AM 42.0903 -89.5419 295° West 200 230 25,300 900 Climbing Chicago Center
10:58AM 42.1242 -89.6183 301° West 204 235 26,300 780 Climbing Chicago Center
10:59AM 42.1556 -89.6836 303° West 206 237 27,000 720 Climbing Chicago Center
11:00AM 42.1864 -89.7486 303° West 204 235 27,800 480 Climbing Chicago Center
11:01AM 42.2181 -89.8172 302° West 212 244 28,000 60 Climbing Chicago Center
11:02AM 42.2519 -89.8936 301° West 233 268 28,000  Level Chicago Center
11:03AM 42.2897 -89.9778 301° West 240 276 28,000  Level Chicago Center
11:04AM 42.3236 -90.0553 301° West 243 280 28,000  Level Chicago Center
11:05AM 42.3578 -90.1314 301° West 239 275 28,000  Level Chicago Center
11:06AM 42.3975 -90.2056 306° West 243 280 28,000  Level Chicago Center
11:07AM 42.4500 -90.2844 312° West 238 274 28,000  Level Chicago Center
11:08AM 42.4942 -90.3461 314° West 231 266 28,000  Level Chicago Center
11:09AM 42.5367 -90.4061 314° West 222 255 28,000  Level Chicago Center
11:10AM 42.5808 -90.4642 316° Northwest 222 255 28,000  Level Chicago Center
11:11AM 42.6236 -90.5214 315° West 219 252 28,000  Level Chicago Center
11:12AM 42.6761 -90.5958 314° West 228 262 28,000  Level Chicago Center
11:13AM 42.7192 -90.6586 313° West 229 264 28,000  Level Chicago Center
11:14AM 42.7622 -90.7231 312° West 230 265 28,000  Level Chicago Center
11:15AM 42.8089 -90.7872 315° West 239 275 28,000  Level Chicago Center
11:16AM 42.8558 -90.8506 315° West 240 276 28,000  Level Chicago Center
11:17AM 42.8817 -90.9481 290° West 229 264 28,000  Level Chicago Center
11:18AM 42.9067 -91.0286 293° West 232 267 28,000  Level Chicago Center
11:19AM 42.9328 -91.1089 294° West 234 269 28,000  Level Chicago Center
11:20AM 42.9589 -91.1889 294° West 234 269 28,000  Level Chicago Center
11:21AM 42.9844 -91.2700 293° West 235 270 28,000  Level Chicago Center
11:22AM 43.0156 -91.3664 294° West 235 270 28,000  Level Chicago Center
11:23AM 43.0472 -91.4431 299° West 236 272 28,000  Level Chicago Center
11:24AM 43.0778 -91.5203 298° West 235 270 28,000  Level Chicago Center
11:25AM 43.1072 -91.5981 297° West 234 269 28,000  Level Chicago Center
11:26AM 43.1383 -91.6753 299° West 235 270 28,000  Level Minneapolis Center
11:27AM 43.1672 -91.7542 297° West 236 272 28,000  Level Minneapolis Center
11:28AM 43.1986 -91.8328 299° West 238 274 28,000  Level Minneapolis Center
11:30AM 43.2294 -91.9142 297° West 241 277 28,000  Level Minneapolis Center
11:31AM 43.2661 -92.0122 297° West 243 280 28,000  Level Minneapolis Center
11:32AM 43.2969 -92.0908 298° West 239 275 28,000  Level Minneapolis Center
11:33AM 43.3269 -92.1700 298° West 237 273 28,000  Level Minneapolis Center
11:34AM 43.3586 -92.2508 298° West 241 277 28,000  Level Minneapolis Center
11:35AM 43.3878 -92.3297 297° West 237 273 28,000  Level Minneapolis Center
11:36AM 43.4228 -92.4250 297° West 235 270 28,000  Level Minneapolis Center
11:37AM 43.4522 -92.5042 297° West 236 272 28,000  Level Minneapolis Center
11:38AM 43.4817 -92.5822 297° West 233 268 28,000  Level Minneapolis Center
11:39AM 43.5117 -92.6614 298° West 235 270 28,000  Level Minneapolis Center
11:40AM 43.5411 -92.7383 298° West 230 265 28,000  Level Minneapolis Center
11:41AM 43.5764 -92.8356 297° West 236 272 28,000  Level Minneapolis Center
11:42AM 43.6056 -92.9153 297° West 236 272 28,000  Level Minneapolis Center
11:43AM 43.6339 -92.9947 296° West 234 269 28,000  Level Minneapolis Center
11:44AM 43.6636 -93.0728 298° West 233 268 28,000  Level Minneapolis Center
11:45AM 43.6931 -93.1503 298° West 232 267 28,000  Level Minneapolis Center
11:46AM 43.7272 -93.2450 297° West 230 265 28,000  Level Minneapolis Center
11:47AM 43.7561 -93.3244 297° West 231 266 28,000  Level Minneapolis Center
11:48AM 43.7856 -93.4050 297° West 235 270 28,000  Level Minneapolis Center
11:49AM 43.8142 -93.4847 296° West 232 267 28,000  Level Minneapolis Center
11:50AM 43.8425 -93.5642 296° West 231 266 28,000  Level Minneapolis Center
11:51AM 43.8728 -93.6444 298° West 234 269 28,000  Level Minneapolis Center
11:52AM 43.9011 -93.7256 296° West 233 268 28,000  Level Minneapolis Center
11:53AM 43.9364 -93.8225 297° West 235 270 28,000  Level Minneapolis Center
11:54AM 43.9653 -93.9039 296° West 235 270 28,000  Level Minneapolis Center
11:55AM 43.9931 -93.9842 296° West 232 267 28,000  Level Minneapolis Center
11:56AM 44.0231 -94.0658 297° West 237 273 28,000  Level Minneapolis Center
11:57AM 44.0511 -94.1464 296° West 233 268 28,000  Level Minneapolis Center
11:58AM 44.0803 -94.2283 296° West 236 272 28,000  Level Minneapolis Center
11:59AM 44.1083 -94.3103 296° West 235 270 28,000  Level Minneapolis Center
12:00PM 44.1444 -94.4089 297° West 237 273 28,000  Level Minneapolis Center
12:01PM 44.1736 -94.4919 296° West 238 274 28,000  Level Minneapolis Center
12:03PM 44.2017 -94.5744 295° West 237 273 28,000  Level Minneapolis Center
12:04PM 44.2356 -94.6681 297° West 239 275 28,000  Level Minneapolis Center
12:05PM 44.2644 -94.7494 296° West 237 273 28,000  Level Minneapolis Center
12:06PM 44.2919 -94.8325 295° West 237 273 28,000  Level Minneapolis Center
12:07PM 44.3214 -94.9153 296° West 239 275 28,000  Level Minneapolis Center
12:08PM 44.3497 -94.9992 295° West 239 275 28,000  Level Minneapolis Center
12:09PM 44.3789 -95.0825 296° West 239 275 28,000  Level Minneapolis Center
12:10PM 44.4133 -95.1828 296° West 240 276 28,000  Level Minneapolis Center
12:11PM 44.4408 -95.2667 295° West 239 275 28,000  Level Minneapolis Center
12:12PM 44.4697 -95.3497 296° West 238 274 28,000  Level Minneapolis Center
12:13PM 44.4958 -95.4333 294° West 237 273 28,000  Level Minneapolis Center
12:14PM 44.5228 -95.5167 294° West 237 273 28,000  Level Minneapolis Center
12:15PM 44.5503 -95.5994 295° West 236 272 28,000  Level Minneapolis Center
12:16PM 44.5819 -95.6997 294° West 235 270 28,000  Level Minneapolis Center
12:17PM 44.6094 -95.7831 295° West 237 273 28,000  Level Minneapolis Center
12:18PM 44.6367 -95.8661 295° West 236 272 28,000  Level Minneapolis Center
12:19PM 44.6631 -95.9503 294° West 237 273 28,000  Level Minneapolis Center
12:20PM 44.6903 -96.0331 295° West 236 272 28,000  Level Minneapolis Center
12:21PM 44.7214 -96.1336 294° West 236 272 28,000  Level Minneapolis Center
12:22PM 44.7475 -96.2167 294° West 235 270 28,000  Level Minneapolis Center
12:23PM 44.7739 -96.2986 294° West 232 267 28,000  Level Minneapolis Center
12:24PM 44.7994 -96.3814 294° West 233 268 28,000  Level Minneapolis Center
12:25PM 44.8253 -96.4628 294° West 230 265 28,000 -360 Level Minneapolis Center
12:26PM 44.8581 -96.5664 294° West 243 280 27,300 -720 Descending Minneapolis Center
12:27PM 44.8864 -96.6589 293° West 256 295 26,600 -720 Descending Minneapolis Center
12:28PM 44.9144 -96.7511 293° West 258 297 25,900 -720 Descending Minneapolis Center
12:29PM 44.9436 -96.8433 294° West 258 297 25,200 -720 Descending Minneapolis Center
12:30PM 44.9711 -96.9303 294° West 248 285 24,500 -720 Descending Minneapolis Center
12:31PM 44.9975 -97.0169 293° West 243 280 23,800 -720 Descending Minneapolis Center
12:32PM 45.0297 -97.1208 294° West 241 277 23,100 -420 Descending Minneapolis Center
12:34PM 45.0553 -97.2047 293° West 235 270 23,000 -60 Descending Minneapolis Center
12:35PM 45.0794 -97.2867 293° West 229 264 23,000  Level Minneapolis Center
12:36PM 45.1064 -97.3703 295° West 232 267 23,000  Level Minneapolis Center
12:37PM 45.1325 -97.4553 294° West 237 273 23,000 -300 Level Minneapolis Center
12:38PM 45.1586 -97.5408 293° West 237 273 22,400 -1,380 Descending Minneapolis Center
12:39PM 45.1894 -97.6422 293° West 236 272 20,200 -1,920 Descending Minneapolis Center
12:40PM 45.2139 -97.7244 293° West 230 265 18,500 -1,860 Descending Minneapolis Center
12:41PM 45.2364 -97.8039 292° West 221 254 16,400 -1,920 Descending Minneapolis Center
12:42PM 45.2603 -97.8831 293° West 219 252 14,600 -1,800 Descending Minneapolis Center
12:43PM 45.2831 -97.9619 292° West 218 251 12,800 -1,800 Descending Minneapolis Center
12:44PM 45.3042 -98.0328 293° West 200 230 11,000 -1,860 Descending Minneapolis Center
12:45PM 45.3250 -98.1153 290° West 212 244 9,000 -1,860 Descending Minneapolis Center
12:46PM 45.3164 -98.1839 260° West 182 209 7,200 -1,740 Descending Minneapolis Center
12:47PM 45.3311 -98.2461 289° West 185 213 5,500 -1,800 Descending Minneapolis Center
12:48PM 45.3767 -98.3108 315° West 198 228 3,600 -1,200 Descending Minneapolis Center
12:49PM 45.4053 -98.3533 314° West 191 220 3,100 -540 Descending Minneapolis Center
12:51PM 45.4333 -98.4167 311° West  Level FlightAware Approximate
12:58PM 45.5307 -99.0041 311° West  Level Estimated
12:59PM 45.5443 -99.0882 311° West  Level Estimated
01:00PM 45.5579 -99.1724 311° West  Level Estimated
01:01PM 45.5715 -99.2565 311° West  Level Estimated
01:02PM 45.5850 -99.3407 311° West  Level Estimated
01:03PM 45.5984 -99.4250 311° West  Level Estimated
01:04PM 45.6117 -99.5093 311° West  Level Estimated
01:05PM 45.6250 -99.5936 311° West  Level Estimated
01:06PM 45.6383 -99.6780 311° West  Level Estimated
01:07PM 45.6514 -99.7624 311° West  Level Estimated
01:08PM 45.6645 -99.8468 311° West  Level Estimated
01:09PM 45.6776 -99.9313 311° West  Level Estimated
01:10PM 45.6906 -100.0159 311° West  Level Estimated
01:11PM 45.7035 -100.1004 311° West  Level Estimated
01:12PM 45.7163 -100.1850 311° West  Level Estimated
01:13PM 45.7291 -100.2697 311° West  Level Estimated
01:14PM 45.7419 -100.3544 311° West  Level Estimated
01:15PM 45.7545 -100.4391 311° West  Level Estimated
01:16PM 45.7671 -100.5239 311° West  Level Estimated
01:17PM 45.7797 -100.6087 311° West  Level Estimated
01:18PM 45.7921 -100.6935 311° West  Level Estimated
01:19PM 45.8046 -100.7784 311° West  Level Estimated
01:20PM 45.8169 -100.8633 311° West  Level Estimated
01:21PM 45.8292 -100.9482 311° West  Level Estimated
01:22PM 45.8414 -101.0332 311° West  Level Estimated
01:23PM 45.8536 -101.1183 311° West  Level Estimated
01:24PM 45.8657 -101.2033 311° West  Level Estimated
01:25PM 45.8778 -101.2884 311° West  Level Estimated
01:26PM 45.8897 -101.3736 311° West  Level Estimated
01:27PM 45.9016 -101.4587 311° West  Level Estimated
01:28PM 45.9135 -101.5439 311° West  Level Estimated
01:29PM 45.9253 -101.6292 311° West  Level Estimated
01:30PM 45.9370 -101.7145 311° West  Level Estimated
01:31PM 45.9487 -101.7998 311° West  Level Estimated
01:32PM 45.9603 -101.8851 311° West  Level Estimated
01:33PM 45.9718 -101.9705 311° West  Level Estimated
01:34PM 45.9833 -102.0560 311° West  Level Estimated
01:35PM 45.9947 -102.1414 311° West  Level Estimated
01:36PM 46.0060 -102.2269 311° West  Level Estimated
01:37PM 46.0173 -102.3125 311° West  Level Estimated
01:38PM 46.0285 -102.3980 311° West  Level Estimated
01:39PM 46.0396 -102.4836 311° West  Level Estimated
01:40PM 46.0507 -102.5693 311° West  Level Estimated
01:41PM 46.0617 -102.6549 311° West  Level Estimated
01:42PM 46.0727 -102.7406 311° West  Level Estimated
01:43PM 46.0836 -102.8264 311° West  Level Estimated
01:44PM 46.0944 -102.9121 311° West  Level Estimated
01:45PM 46.1052 -102.9980 311° West  Level Estimated
01:46PM 46.1159 -103.0838 311° West  Level Estimated
01:47PM 46.1265 -103.1697 311° West  Level Estimated
01:48PM 46.1371 -103.2556 311° West  Level Estimated
01:49PM 46.1476 -103.3415 311° West  Level Estimated
01:50PM 46.1581 -103.4275 311° West  Level Estimated
01:51PM 46.1684 -103.5135 311° West  Level Estimated
01:52PM 46.1787 -103.5995 311° West  Level Estimated
01:53PM 46.1890 -103.6856 311° West  Level Estimated
01:54PM 46.1992 -103.7717 311° West  Level Estimated
01:55PM 46.2093 -103.8578 311° West  Level Estimated
01:56PM 46.2194 -103.9440 311° West  Level Estimated
01:57PM 46.2294 -104.0302 311° West  Level Estimated
01:58PM 46.2393 -104.1164 311° West  Level Estimated
01:59PM 46.2491 -104.2027 311° West  Level Estimated
02:00PM 46.2589 -104.2889 311° West  Level Estimated
02:01PM 46.2687 -104.3753 311° West  Level Estimated
02:02PM 46.2783 -104.4616 311° West  Level Estimated
02:03PM 46.2879 -104.5480 311° West  Level Estimated
02:04PM 46.2975 -104.6344 311° West  Level Estimated
02:05PM 46.3069 -104.7208 311° West  Level Estimated
02:06PM 46.3164 -104.8073 311° West  Level Estimated
02:07PM 46.3257 -104.8938 311° West  Level Estimated
02:08PM 46.3350 -104.9803 311° West  Level Estimated
02:09PM 46.3442 -105.0669 311° West  Level Estimated
02:10PM 46.3533 -105.1535 311° West  Level Estimated
02:11PM 46.3624 -105.2401 311° West  Level Estimated
02:12PM 46.3714 -105.3268 311° West  Level Estimated
02:13PM 46.3804 -105.4134 311° West  Level Estimated
02:14PM 46.3892 -105.5001 311° West  Level Estimated